createdAt,value
2022-08-28T00:00:59.986Z,41.33
2022-08-28T00:03:26.962Z,42.83
2022-08-28T00:05:58.526Z,40.58
2022-08-28T00:08:26.199Z,43.40
2022-08-28T00:10:53.958Z,44.00
2022-08-28T00:13:22.531Z,42.88
2022-08-28T00:16:01.147Z,44.25
2022-08-28T00:18:29.218Z,44.17
2022-08-28T00:20:56.726Z,44.92
2022-08-28T00:23:25.510Z,45.28
2022-08-28T00:26:10.102Z,45.85
2022-08-28T00:28:37.231Z,43.55
2022-08-28T00:31:05.429Z,46.45
2022-08-28T00:33:35.036Z,48.63
2022-08-28T00:36:02.647Z,46.72
2022-08-28T00:38:29.792Z,48.83
2022-08-28T00:41:00.898Z,48.60
2022-08-28T00:43:47.875Z,48.35
2022-08-28T00:46:22.682Z,48.30
2022-08-28T00:48:50.664Z,52.53
2022-08-28T00:51:38.741Z,48.20
2022-08-28T00:54:08.058Z,51.78
2022-08-28T00:56:38.331Z,54.15
2022-08-28T00:59:09.665Z,50.50
2022-08-28T01:01:38.955Z,56.67
2022-08-28T01:04:06.860Z,53.90
2022-08-28T01:06:35.462Z,59.85
2022-08-28T01:09:03.726Z,56.95
2022-08-28T01:11:31.583Z,59.47
2022-08-28T01:14:03.169Z,59.15
2022-08-28T01:16:32.983Z,61.35
2022-08-28T01:19:02.578Z,63.75
2022-08-28T01:21:35.477Z,63.72
2022-08-28T01:24:09.563Z,60.67
2022-08-28T01:26:38.523Z,61.90
2022-08-28T01:29:06.423Z,62.13
2022-08-28T01:31:33.512Z,61.58
2022-08-28T01:34:01.162Z,63.13
2022-08-28T01:36:29.348Z,60.58
2022-08-28T01:39:16.777Z,61.63
2022-08-28T01:41:48.822Z,60.13
2022-08-28T01:44:18.014Z,61.90
2022-08-28T01:46:46.396Z,61.08
2022-08-28T01:49:13.898Z,64.13
2022-08-28T01:51:42.422Z,66.18
2022-08-28T01:54:11.862Z,69.63
2022-08-28T01:56:41.185Z,65.90
2022-08-28T01:59:09.924Z,67.53
2022-08-28T02:01:37.796Z,67.25
2022-08-28T02:04:05.300Z,67.93
2022-08-28T02:06:33.007Z,71.80
2022-08-28T02:09:01.117Z,67.22
2022-08-28T02:11:30.049Z,67.03
2022-08-28T02:13:57.021Z,65.70
2022-08-28T02:16:25.143Z,64.63
2022-08-28T02:18:52.674Z,66.97
2022-08-28T02:21:20.894Z,63.58
2022-08-28T02:23:50.301Z,64.53
2022-08-28T02:26:17.365Z,63.50
2022-08-28T02:28:44.428Z,64.28
2022-08-28T02:31:12.047Z,60.38
2022-08-28T02:33:41.383Z,63.78
2022-08-28T02:36:11.721Z,61.72
2022-08-28T02:38:39.203Z,58.63
2022-08-28T02:41:07.607Z,61.58
2022-08-28T02:43:34.888Z,58.13
2022-08-28T02:46:02.439Z,58.25
2022-08-28T02:48:36.871Z,55.47
2022-08-28T02:51:09.170Z,57.83
2022-08-28T02:53:36.682Z,58.13
2022-08-28T02:56:04.952Z,56.72
2022-08-28T02:58:33.385Z,56.92
2022-08-28T03:01:03.980Z,56.60
2022-08-28T03:03:32.585Z,53.83
2022-08-28T03:06:01.021Z,57.33
2022-08-28T03:08:29.249Z,55.53
2022-08-28T03:10:56.680Z,53.60
2022-08-28T03:13:26.990Z,55.88
2022-08-28T03:15:56.242Z,55.42
2022-08-28T03:18:25.541Z,53.35
2022-08-28T03:20:53.510Z,55.00
2022-08-28T03:23:26.455Z,53.90
2022-08-28T03:26:01.192Z,55.85
2022-08-28T03:28:33.925Z,52.53
2022-08-28T03:31:01.580Z,52.78
2022-08-28T03:33:28.734Z,54.22
2022-08-28T03:35:55.774Z,50.75
2022-08-28T03:38:25.323Z,53.30
2022-08-28T03:40:53.595Z,51.53
2022-08-28T03:43:24.254Z,51.30
2022-08-28T03:46:00.181Z,48.00
2022-08-28T03:48:30.129Z,50.17
2022-08-28T03:51:00.132Z,48.15
2022-08-28T03:53:30.817Z,47.08
2022-08-28T03:55:58.171Z,51.15
2022-08-28T03:58:26.042Z,48.95
2022-08-28T04:00:53.521Z,48.28
2022-08-28T04:03:20.669Z,47.22
2022-08-28T04:05:48.407Z,46.30
2022-08-28T04:08:17.301Z,47.30
2022-08-28T04:10:45.963Z,47.40
2022-08-28T04:13:14.667Z,46.42
2022-08-28T04:15:41.877Z,46.10
2022-08-28T04:18:11.092Z,44.58
2022-08-28T04:20:39.365Z,44.03
2022-08-28T04:23:08.527Z,47.15
2022-08-28T04:25:35.603Z,47.30
2022-08-28T04:28:02.908Z,46.53
2022-08-28T04:30:30.185Z,48.70
2022-08-28T04:32:57.178Z,46.75
2022-08-28T04:35:24.223Z,46.28
2022-08-28T04:37:51.325Z,46.75
2022-08-28T04:40:19.372Z,46.53
2022-08-28T04:42:47.682Z,45.22
2022-08-28T04:45:15.168Z,43.95
2022-08-28T04:47:42.136Z,46.65
2022-08-28T04:50:11.586Z,44.60
2022-08-28T04:52:38.674Z,43.95
2022-08-28T04:55:06.138Z,46.15
2022-08-28T04:57:36.255Z,42.67
2022-08-28T05:00:05.739Z,43.03
2022-08-28T05:02:32.920Z,46.03
2022-08-28T05:04:59.922Z,45.17
2022-08-28T05:07:26.893Z,45.72
2022-08-28T05:09:54.829Z,45.47
2022-08-28T05:12:22.302Z,46.67
2022-08-28T05:14:49.746Z,43.65
2022-08-28T05:17:16.752Z,48.30
2022-08-28T05:19:43.980Z,44.03
2022-08-28T05:22:11.160Z,44.70
2022-08-28T05:24:39.659Z,45.83
2022-08-28T05:27:07.734Z,46.13
2022-08-28T05:29:36.136Z,44.25
2022-08-28T05:32:04.652Z,45.90
2022-08-28T05:34:31.849Z,44.25
2022-08-28T05:36:58.932Z,48.55
2022-08-28T05:39:26.031Z,44.22
2022-08-28T05:41:53.479Z,43.90
2022-08-28T05:44:21.141Z,43.13
2022-08-28T05:46:48.467Z,45.05
2022-08-28T05:49:17.982Z,42.70
2022-08-28T05:51:46.610Z,43.15
2022-08-28T05:54:16.094Z,42.97
2022-08-28T05:59:26.604Z,44.08
2022-08-28T06:01:53.717Z,41.47
2022-08-28T06:04:26.476Z,44.33
2022-08-28T06:06:54.850Z,46.75
2022-08-28T06:09:29.913Z,42.65
2022-08-28T06:11:59.990Z,43.78
2022-08-28T06:14:27.801Z,44.13
2022-08-28T06:16:56.475Z,43.22
2022-08-28T06:19:25.860Z,47.42
2022-08-28T06:21:58.169Z,45.17
2022-08-28T06:24:26.566Z,45.27
2022-08-28T06:26:56.559Z,44.03
2022-08-28T06:29:27.601Z,44.10
2022-08-28T06:32:04.566Z,47.42
2022-08-28T06:34:31.868Z,46.72
2022-08-28T06:37:00.721Z,44.85
2022-08-28T06:39:27.853Z,46.47
2022-08-28T06:41:55.033Z,45.50
2022-08-28T06:44:22.648Z,47.33
2022-08-28T06:46:53.184Z,48.03
2022-08-28T06:49:20.975Z,45.78
2022-08-28T06:51:48.740Z,44.10
2022-08-28T06:54:22.306Z,45.17
2022-08-28T06:56:50.997Z,44.90
2022-08-28T06:59:21.635Z,44.25
2022-08-28T07:01:52.255Z,43.58
2022-08-28T07:04:21.688Z,44.38
2022-08-28T07:06:54.661Z,45.63
2022-08-28T07:09:22.843Z,46.72
2022-08-28T07:11:50.224Z,44.65
2022-08-28T07:14:17.582Z,45.78
2022-08-28T07:16:44.726Z,44.13
2022-08-28T07:19:12.671Z,44.85
2022-08-28T07:21:43.287Z,44.60
2022-08-28T07:24:13.107Z,40.90
2022-08-28T07:26:41.236Z,42.65
2022-08-28T07:29:10.951Z,42.17
2022-08-28T07:31:48.410Z,42.42
2022-08-28T07:34:17.209Z,45.08
2022-08-28T07:36:44.777Z,45.15
2022-08-28T07:39:13.986Z,47.15
2022-08-28T07:41:48.829Z,47.17
2022-08-28T07:49:17.322Z,44.95
2022-08-28T07:51:46.886Z,44.20
2022-08-28T07:54:17.745Z,43.90
2022-08-28T07:56:49.197Z,44.05
2022-08-28T07:59:19.355Z,40.25
2022-08-28T08:01:48.431Z,40.10
2022-08-28T08:04:16.747Z,40.95
2022-08-28T08:06:47.908Z,38.40
2022-08-28T08:09:24.215Z,41.22
2022-08-28T08:11:57.727Z,42.40
2022-08-28T08:14:25.713Z,40.40
2022-08-28T08:16:53.891Z,41.88
2022-08-28T08:19:21.886Z,40.10
2022-08-28T08:21:55.077Z,41.08
2022-08-28T08:24:26.923Z,40.08
2022-08-28T08:26:59.957Z,42.30
2022-08-28T08:29:34.282Z,42.17
2022-08-28T08:32:06.156Z,44.30
2022-08-28T08:34:40.115Z,42.08
2022-08-28T08:37:07.966Z,41.25
2022-08-28T08:39:36.716Z,42.65
2022-08-28T08:42:07.658Z,46.03
2022-08-28T08:44:44.181Z,42.55
2022-08-28T08:47:20.209Z,44.85
2022-08-28T08:49:56.530Z,43.13
2022-08-28T08:52:38.728Z,41.90
2022-08-28T08:55:19.430Z,43.67
2022-08-28T08:57:51.649Z,40.72
2022-08-28T09:00:19.935Z,40.33
2022-08-28T09:03:01.978Z,38.42
2022-08-28T09:05:42.148Z,40.78
2022-08-28T09:08:21.906Z,39.08
2022-08-28T09:11:00.901Z,35.63
2022-08-28T09:13:33.677Z,33.47
2022-08-28T09:18:33.322Z,32.97
2022-08-28T09:21:08.209Z,35.75
2022-08-28T09:23:52.745Z,36.15
2022-08-28T09:26:30.573Z,34.47
2022-08-28T09:29:01.695Z,35.90
2022-08-28T09:31:36.723Z,32.92
2022-08-28T09:34:24.110Z,30.13
2022-08-28T09:36:53.366Z,28.75
2022-08-28T09:39:20.357Z,29.75
2022-08-28T09:42:33.334Z,28.73
2022-08-28T09:45:13.684Z,28.70
2022-08-28T09:47:54.330Z,25.38
2022-08-28T09:50:29.211Z,24.08
2022-08-28T09:53:17.844Z,23.23
2022-08-28T09:56:06.884Z,22.75
2022-08-28T09:58:43.360Z,21.48
2022-08-28T10:01:16.049Z,21.88
2022-08-28T10:03:52.136Z,19.73
2022-08-28T10:06:26.853Z,19.60
2022-08-28T10:08:58.416Z,19.98
2022-08-28T10:11:44.323Z,18.80
2022-08-28T10:14:42.885Z,19.25
2022-08-28T10:17:28.489Z,17.98
2022-08-28T10:20:03.185Z,15.85
2022-08-28T10:22:55.027Z,15.73
2022-08-28T10:26:12.949Z,15.38
2022-08-28T10:29:13.951Z,14.80
2022-08-28T10:31:46.953Z,14.57
2022-08-28T10:34:25.666Z,13.27
2022-08-28T10:37:18.262Z,13.65
2022-08-28T10:39:55.420Z,13.80
2022-08-28T10:42:48.345Z,14.38
2022-08-28T10:45:20.306Z,12.35
2022-08-28T10:47:53.811Z,12.10
2022-08-28T10:50:29.398Z,11.68
2022-08-28T10:53:03.193Z,12.15
2022-08-28T10:55:47.571Z,11.82
2022-08-28T10:58:24.343Z,12.88
2022-08-28T11:00:57.424Z,13.23
2022-08-28T11:03:35.107Z,13.02
2022-08-28T11:06:11.582Z,12.27
2022-08-28T11:08:40.034Z,13.18
2022-08-28T11:11:47.101Z,13.82
2022-08-28T11:14:48.328Z,14.35
2022-08-28T11:17:21.726Z,12.68
2022-08-28T11:19:57.508Z,14.18
2022-08-28T11:22:35.011Z,14.07
2022-08-28T11:25:13.490Z,16.40
2022-08-28T11:28:01.485Z,16.40
2022-08-28T11:30:35.628Z,13.57
2022-08-28T11:33:08.963Z,14.57
2022-08-28T11:35:46.414Z,12.88
2022-08-28T11:38:42.187Z,14.05
2022-08-28T11:41:22.782Z,14.55
2022-08-28T11:44:10.038Z,13.35
2022-08-28T11:46:40.250Z,13.25
2022-08-28T11:49:31.966Z,14.38
2022-08-28T11:52:20.633Z,12.77
2022-08-28T11:54:56.022Z,12.70
2022-08-28T11:57:31.895Z,14.27
2022-08-28T12:00:03.050Z,13.68
2022-08-28T12:02:40.973Z,15.30
2022-08-28T12:05:12.366Z,13.55
2022-08-28T12:07:42.363Z,14.88
2022-08-28T12:10:24.815Z,13.63
2022-08-28T12:13:03.314Z,14.20
2022-08-28T12:15:31.227Z,14.38
2022-08-28T12:18:40.453Z,14.30
2022-08-28T12:21:16.339Z,14.65
2022-08-28T12:24:09.014Z,12.93
2022-08-28T12:26:42.365Z,14.10
2022-08-28T12:29:49.821Z,14.38
2022-08-28T12:33:15.438Z,14.38
2022-08-28T12:35:43.924Z,12.95
2022-08-28T12:38:19.650Z,14.82
2022-08-28T12:40:53.065Z,15.18
2022-08-28T12:43:27.608Z,15.18
2022-08-28T12:46:02.226Z,14.43
2022-08-28T12:48:57.116Z,15.07
2022-08-28T12:51:28.594Z,14.65
2022-08-28T12:53:58.711Z,14.15
2022-08-28T12:56:30.219Z,14.90
2022-08-28T12:59:32.678Z,15.73
2022-08-28T13:02:26.119Z,14.15
2022-08-28T13:05:10.677Z,14.98
2022-08-28T13:07:49.938Z,14.35
2022-08-28T13:10:27.755Z,13.45
2022-08-28T13:13:05.603Z,13.52
2022-08-28T13:15:45.674Z,13.48
2022-08-28T13:18:47.565Z,12.15
2022-08-28T13:21:33.643Z,12.98
2022-08-28T13:24:28.586Z,12.27
2022-08-28T13:27:23.046Z,13.98
2022-08-28T13:30:01.459Z,12.32
2022-08-28T13:32:33.894Z,14.10
2022-08-28T13:35:13.936Z,14.32
2022-08-28T13:37:47.217Z,14.35
2022-08-28T13:40:44.508Z,15.68
2022-08-28T13:43:11.339Z,13.95
2022-08-28T13:45:43.140Z,15.82
2022-08-28T13:48:13.170Z,13.95
2022-08-28T13:50:46.685Z,17.10
2022-08-28T13:53:18.821Z,14.05
2022-08-28T13:55:48.655Z,15.30
2022-08-28T13:58:16.163Z,13.70
2022-08-28T14:00:48.377Z,13.93
2022-08-28T14:03:35.330Z,13.07
2022-08-28T14:06:16.578Z,13.90
2022-08-28T14:08:45.821Z,14.48
2022-08-28T14:11:15.356Z,14.07
2022-08-28T14:13:47.061Z,13.65
2022-08-28T14:16:24.777Z,14.73
2022-08-28T14:18:53.078Z,13.68
2022-08-28T14:21:22.165Z,14.80
2022-08-28T14:23:49.145Z,13.98
2022-08-28T14:26:16.222Z,14.23
2022-08-28T14:28:43.243Z,14.23
2022-08-28T14:31:14.469Z,13.13
2022-08-28T14:33:45.233Z,14.23
2022-08-28T14:36:23.387Z,14.00
2022-08-28T14:38:54.078Z,14.02
2022-08-28T14:41:25.247Z,15.55
2022-08-28T14:43:53.728Z,13.38
2022-08-28T14:46:23.152Z,13.88
2022-08-28T14:48:52.007Z,11.95
2022-08-28T14:51:19.203Z,12.98
2022-08-28T14:53:46.826Z,11.70
2022-08-28T14:56:13.824Z,12.73
2022-08-28T14:58:40.888Z,12.90
2022-08-28T15:01:07.991Z,12.48
2022-08-28T15:03:35.615Z,12.35
2022-08-28T15:06:07.859Z,12.63
2022-08-28T15:08:37.278Z,13.30
2022-08-28T15:11:08.704Z,13.57
2022-08-28T15:13:35.918Z,14.30
2022-08-28T15:16:10.580Z,13.10
2022-08-28T15:18:45.794Z,13.25
2022-08-28T15:21:25.611Z,14.13
2022-08-28T15:23:55.025Z,13.05
2022-08-28T15:26:23.610Z,14.25
2022-08-28T15:31:42.673Z,16.85
2022-08-28T15:34:18.832Z,16.40
2022-08-28T15:36:54.874Z,17.40
2022-08-28T15:39:48.393Z,18.00
2022-08-28T15:42:16.147Z,18.50
2022-08-28T15:44:43.713Z,21.17
2022-08-28T15:47:12.654Z,23.83
2022-08-28T15:49:48.616Z,24.10
2022-08-28T15:52:18.922Z,24.05
2022-08-28T15:54:46.264Z,24.92
2022-08-28T15:57:13.328Z,25.73
2022-08-28T15:59:49.637Z,26.13
2022-08-28T16:02:22.090Z,27.42
2022-08-28T16:04:49.647Z,29.53
2022-08-28T16:07:18.165Z,28.00
2022-08-28T16:09:45.474Z,30.45
2022-08-28T16:12:12.873Z,29.55
2022-08-28T16:14:39.918Z,30.83
2022-08-28T16:17:11.182Z,31.75
2022-08-28T16:19:42.349Z,31.23
2022-08-28T16:22:13.116Z,28.92
2022-08-28T16:24:40.213Z,32.70
2022-08-28T16:27:10.675Z,34.65
2022-08-28T16:29:41.839Z,33.63
2022-08-28T16:32:11.716Z,31.85
2022-08-28T16:34:39.134Z,34.22
2022-08-28T16:37:08.030Z,33.45
2022-08-28T16:39:36.125Z,31.65
2022-08-28T16:42:03.287Z,35.78
2022-08-28T16:44:30.389Z,34.05
2022-08-28T16:46:57.448Z,35.72
2022-08-28T16:49:24.918Z,34.75
2022-08-28T16:51:52.836Z,36.22
2022-08-28T16:54:21.568Z,35.13
2022-08-28T16:56:48.686Z,36.10
2022-08-28T16:59:23.290Z,37.83
2022-08-28T17:01:53.050Z,38.67
2022-08-28T17:04:21.814Z,38.50
2022-08-28T17:06:48.905Z,40.47
2022-08-28T17:09:15.970Z,39.00
2022-08-28T17:11:43.440Z,39.97
2022-08-28T17:14:12.159Z,39.35
2022-08-28T17:16:39.539Z,40.20
2022-08-28T17:19:32.094Z,40.70
2022-08-28T17:22:17.812Z,40.40
2022-08-28T17:24:47.875Z,40.20
2022-08-28T17:27:22.374Z,41.28
2022-08-28T17:29:49.836Z,41.92
2022-08-28T17:32:16.862Z,41.60
2022-08-28T17:34:43.923Z,43.92
2022-08-28T17:37:11.475Z,40.15
2022-08-28T17:39:38.581Z,43.85
2022-08-28T17:42:06.334Z,41.90
2022-08-28T17:44:35.550Z,46.10
2022-08-28T17:47:03.271Z,43.40
2022-08-28T17:49:30.439Z,43.50
2022-08-28T17:51:57.507Z,45.03
2022-08-28T17:54:25.005Z,45.78
2022-08-28T17:56:53.248Z,45.55
2022-08-28T17:59:21.511Z,42.92
2022-08-28T18:01:50.576Z,42.67
2022-08-28T18:04:24.225Z,40.50
2022-08-28T18:06:54.971Z,41.90
2022-08-28T18:09:23.434Z,38.78
2022-08-28T18:11:51.280Z,38.67
2022-08-28T18:14:18.613Z,41.25
2022-08-28T18:16:45.765Z,41.17
2022-08-28T18:19:13.839Z,43.15
2022-08-28T18:21:41.311Z,41.03
2022-08-28T18:24:13.010Z,39.83
2022-08-28T18:26:42.866Z,42.90
2022-08-28T18:29:10.902Z,43.35
2022-08-28T18:31:38.182Z,43.35
2022-08-28T18:34:05.687Z,41.78
2022-08-28T18:36:32.996Z,39.50
2022-08-28T18:39:00.181Z,41.28
2022-08-28T18:41:43.250Z,42.50
2022-08-28T18:44:14.143Z,42.60
2022-08-28T18:46:42.717Z,42.67
2022-08-28T18:49:12.721Z,40.30
2022-08-28T18:51:44.484Z,41.25
2022-08-28T18:54:16.455Z,39.65
2022-08-28T18:56:45.030Z,38.58
2022-08-28T18:59:12.146Z,39.45
2022-08-28T19:01:39.641Z,38.13
2022-08-28T19:04:07.595Z,37.30
2022-08-28T19:06:35.388Z,37.55
2022-08-28T19:09:05.360Z,37.92
2022-08-28T19:11:33.387Z,36.60
2022-08-28T19:14:03.676Z,38.22
2022-08-28T19:16:32.254Z,36.60
2022-08-28T19:19:00.257Z,34.83
2022-08-28T19:21:29.225Z,36.13
2022-08-28T19:23:57.058Z,36.30
2022-08-28T19:26:25.366Z,34.78
2022-08-28T19:28:52.980Z,35.83
2022-08-28T19:31:20.348Z,33.95
2022-08-28T19:33:47.674Z,33.92
2022-08-28T19:36:15.330Z,35.25
2022-08-28T19:38:42.847Z,34.85
2022-08-28T19:41:11.535Z,34.38
2022-08-28T19:43:44.258Z,34.25
2022-08-28T19:46:19.506Z,32.72
2022-08-28T19:48:52.898Z,31.10
2022-08-28T19:51:24.106Z,34.58
2022-08-28T19:53:57.269Z,36.55
2022-08-28T19:56:27.529Z,34.50
2022-08-28T19:58:57.601Z,33.88
2022-08-28T20:01:30.014Z,32.80
2022-08-28T20:03:59.338Z,33.40
2022-08-28T20:06:27.602Z,34.65
2022-08-28T20:08:54.825Z,35.20
2022-08-28T20:11:30.424Z,33.28
2022-08-28T20:14:04.669Z,33.58
2022-08-28T20:16:35.397Z,30.35
2022-08-28T20:19:04.225Z,32.13
2022-08-28T20:21:37.668Z,30.60
2022-08-28T20:24:11.618Z,32.72
2022-08-28T20:26:39.196Z,30.95
2022-08-28T20:29:08.797Z,32.13
2022-08-28T20:31:40.451Z,32.15
2022-08-28T20:34:09.293Z,32.03
2022-08-28T20:36:36.324Z,32.00
2022-08-28T20:39:07.290Z,33.17
2022-08-28T20:41:35.511Z,32.85
2022-08-28T20:44:06.394Z,32.92
2022-08-28T20:46:40.459Z,31.65
2022-08-28T20:49:10.326Z,30.10
2022-08-28T20:51:56.232Z,30.55
2022-08-28T20:54:38.966Z,30.00
2022-08-28T20:57:08.830Z,29.10
2022-08-28T20:59:39.939Z,29.38
2022-08-28T21:02:15.169Z,29.92
2022-08-28T21:04:43.987Z,28.77
2022-08-28T21:07:13.743Z,30.27
2022-08-28T21:10:05.230Z,27.73
2022-08-28T21:12:31.165Z,27.70
2022-08-28T21:15:00.033Z,29.88
2022-08-28T21:17:29.615Z,26.35
2022-08-28T21:20:04.189Z,27.20
2022-08-28T21:22:33.043Z,27.23
2022-08-28T21:25:07.627Z,27.00
2022-08-28T21:27:34.844Z,27.92
2022-08-28T21:30:02.838Z,27.15
2022-08-28T21:32:32.791Z,27.95
2022-08-28T21:35:01.072Z,29.35
2022-08-28T21:37:28.562Z,28.17
2022-08-28T21:39:56.568Z,28.42
2022-08-28T21:42:24.187Z,26.23
2022-08-28T21:44:52.190Z,25.95
2022-08-28T21:47:23.737Z,27.60
2022-08-28T21:49:52.107Z,27.73
2022-08-28T21:52:30.006Z,24.48
2022-08-28T21:55:02.573Z,24.63
2022-08-28T21:59:58.552Z,21.33
2022-08-28T22:02:25.744Z,22.23
2022-08-28T22:04:52.985Z,22.73
2022-08-28T22:07:20.626Z,22.80
2022-08-28T22:09:47.751Z,22.10
2022-08-28T22:12:14.874Z,21.17
2022-08-28T22:14:42.317Z,19.75
2022-08-28T22:17:11.901Z,19.00
2022-08-28T22:19:39.944Z,20.02
2022-08-28T22:22:26.073Z,20.25
2022-08-28T22:24:53.067Z,16.95
2022-08-28T22:27:20.365Z,17.95
2022-08-28T22:29:48.300Z,17.45
2022-08-28T22:32:15.595Z,20.05
2022-08-28T22:34:45.414Z,20.67
2022-08-28T22:37:13.609Z,21.25
2022-08-28T22:39:41.897Z,19.48
2022-08-28T22:42:10.264Z,19.58
2022-08-28T22:44:38.746Z,20.00
2022-08-28T22:47:06.357Z,19.50
2022-08-28T22:49:33.599Z,20.90
2022-08-28T22:52:03.444Z,19.17
2022-08-28T22:54:32.776Z,20.23
2022-08-28T22:56:59.753Z,22.27
2022-08-28T22:59:28.132Z,20.10
2022-08-28T23:01:55.774Z,19.08
2022-08-28T23:04:22.810Z,21.33
2022-08-28T23:06:49.927Z,21.27
2022-08-28T23:09:17.205Z,21.52
2022-08-28T23:11:44.464Z,22.35
2022-08-28T23:14:11.406Z,22.30
2022-08-28T23:16:39.161Z,21.98
2022-08-28T23:19:09.061Z,21.45
2022-08-28T23:21:43.442Z,22.73
2022-08-28T23:24:14.357Z,24.77
2022-08-28T23:26:42.485Z,21.58
2022-08-28T23:29:10.860Z,22.35
2022-08-28T23:31:38.683Z,22.63
2022-08-28T23:34:06.675Z,22.85
2022-08-28T23:36:35.590Z,22.27
2022-08-28T23:39:03.660Z,23.55
2022-08-28T23:41:32.289Z,22.73
2022-08-28T23:43:59.520Z,25.83
2022-08-28T23:46:26.659Z,24.48
2022-08-28T23:48:54.468Z,24.25
2022-08-28T23:51:22.165Z,26.98
2022-08-28T23:53:49.806Z,25.42
2022-08-28T23:56:17.120Z,23.55
2022-08-28T23:58:45.161Z,25.77
